createdAt,value
2017-09-24T00:00:50.661Z,9.3
2017-09-24T00:01:52.025Z,9.3
2017-09-24T00:02:53.424Z,9.2
2017-09-24T00:03:54.790Z,9.3
2017-09-24T00:04:56.201Z,9.2
2017-09-24T00:05:57.573Z,9.2
2017-09-24T00:06:58.988Z,9.2
2017-09-24T00:08:00.357Z,9.2
2017-09-24T00:09:01.760Z,9.1
2017-09-24T00:10:03.128Z,9.2
2017-09-24T00:11:04.549Z,9.1
2017-09-24T00:12:05.914Z,9.1
2017-09-24T00:13:07.323Z,9.1
2017-09-24T00:14:08.690Z,9.1
2017-09-24T00:15:10.101Z,9.0
2017-09-24T00:16:11.466Z,9.1
2017-09-24T00:17:12.878Z,9.1
2017-09-24T00:18:14.245Z,9.1
2017-09-24T00:19:15.662Z,9.1
2017-09-24T00:20:17.030Z,9.1
2017-09-24T00:21:18.442Z,9.1
2017-09-24T00:22:19.827Z,9.1
2017-09-24T00:23:21.219Z,9.1
2017-09-24T00:24:22.584Z,9.0
2017-09-24T00:25:24.002Z,9.2
2017-09-24T00:26:25.365Z,9.1
2017-09-24T00:27:26.779Z,9.1
2017-09-24T00:28:28.143Z,9.1
2017-09-24T00:29:29.557Z,9.1
2017-09-24T00:30:30.923Z,9.1
2017-09-24T00:31:32.351Z,9.1
2017-09-24T00:32:33.719Z,9.1
2017-09-24T00:33:35.117Z,9.1
2017-09-24T00:34:36.490Z,9.2
2017-09-24T00:35:37.900Z,9.2
2017-09-24T00:36:39.270Z,9.2
2017-09-24T00:37:40.677Z,9.3
2017-09-24T00:38:42.042Z,9.3
2017-09-24T00:39:43.458Z,9.4
2017-09-24T00:40:44.825Z,9.4
2017-09-24T00:41:46.235Z,9.3
2017-09-24T00:42:47.599Z,9.4
2017-09-24T00:43:49.015Z,9.3
2017-09-24T00:44:50.381Z,9.4
2017-09-24T00:45:51.798Z,9.4
2017-09-24T00:46:53.160Z,9.4
2017-09-24T00:47:54.573Z,9.4
2017-09-24T00:48:55.949Z,9.4
2017-09-24T00:49:57.354Z,9.4
2017-09-24T00:50:58.718Z,9.4
2017-09-24T00:52:00.137Z,9.4
2017-09-24T00:53:01.503Z,9.4
2017-09-24T00:54:02.917Z,9.3
2017-09-24T00:55:04.300Z,9.4
2017-09-24T00:56:05.691Z,9.4
2017-09-24T00:57:07.058Z,9.4
2017-09-24T00:58:08.474Z,9.4
2017-09-24T00:59:09.841Z,9.4
2017-09-24T01:00:11.250Z,9.4
2017-09-24T01:01:12.618Z,9.5
2017-09-24T01:02:14.030Z,9.5
2017-09-24T01:03:15.414Z,9.5
2017-09-24T01:04:16.823Z,9.5
2017-09-24T01:05:18.176Z,9.5
2017-09-24T01:06:19.591Z,9.5
2017-09-24T01:07:20.960Z,9.5
2017-09-24T01:08:22.371Z,9.5
2017-09-24T01:09:23.740Z,9.5
2017-09-24T01:10:25.163Z,9.6
2017-09-24T01:11:26.517Z,9.5
2017-09-24T01:12:27.928Z,9.5
2017-09-24T01:13:29.297Z,9.4
2017-09-24T01:14:30.710Z,9.5
2017-09-24T01:15:32.083Z,9.4
2017-09-24T01:16:33.489Z,9.5
2017-09-24T01:17:34.851Z,9.4
2017-09-24T01:18:36.267Z,9.4
2017-09-24T01:19:37.676Z,9.4
2017-09-24T01:20:39.048Z,9.3
2017-09-24T01:21:40.427Z,9.3
2017-09-24T01:22:41.827Z,9.4
2017-09-24T01:23:43.199Z,9.4
2017-09-24T01:24:44.607Z,9.3
2017-09-24T01:25:45.971Z,9.3
2017-09-24T01:26:47.387Z,9.4
2017-09-24T01:27:48.756Z,9.3
2017-09-24T01:28:50.167Z,9.4
2017-09-24T01:29:51.535Z,9.4
2017-09-24T01:30:52.951Z,9.3
2017-09-24T01:31:54.321Z,9.2
2017-09-24T01:32:55.725Z,9.2
2017-09-24T01:33:57.107Z,9.2
2017-09-24T01:34:58.505Z,9.2
2017-09-24T01:35:59.867Z,9.2
2017-09-24T01:37:01.293Z,9.2
2017-09-24T01:38:02.666Z,9.2
2017-09-24T01:39:04.063Z,9.2
2017-09-24T01:40:05.431Z,9.2
2017-09-24T01:41:06.847Z,9.2
2017-09-24T01:42:08.210Z,9.2
2017-09-24T01:43:10.017Z,9.3
2017-09-24T01:44:11.385Z,9.2
2017-09-24T01:45:12.813Z,9.1
2017-09-24T01:46:14.185Z,9.1
2017-09-24T01:47:15.592Z,9.1
2017-09-24T01:48:17.013Z,9.0
2017-09-24T01:49:18.479Z,9.0
2017-09-24T01:50:19.844Z,9.0
2017-09-24T01:51:21.260Z,9.0
2017-09-24T01:52:22.622Z,8.9
2017-09-24T01:53:24.035Z,8.9
2017-09-24T01:54:25.408Z,8.9
2017-09-24T01:55:26.819Z,8.9
2017-09-24T01:56:28.182Z,8.8
2017-09-24T01:57:29.593Z,8.9
2017-09-24T01:58:30.961Z,8.8
2017-09-24T01:59:32.373Z,8.8
2017-09-24T02:00:33.741Z,8.8
2017-09-24T02:01:35.153Z,8.7
2017-09-24T02:02:36.518Z,8.7
2017-09-24T02:03:37.930Z,8.7
2017-09-24T02:04:39.298Z,8.8
2017-09-24T02:05:40.717Z,8.7
2017-09-24T02:06:42.079Z,8.8
2017-09-24T02:07:43.490Z,8.8
2017-09-24T02:08:44.857Z,8.8
2017-09-24T02:09:46.267Z,8.7
2017-09-24T02:10:47.636Z,8.8
2017-09-24T02:11:49.048Z,8.8
2017-09-24T02:12:50.421Z,8.6
2017-09-24T02:13:51.828Z,8.7
2017-09-24T02:14:53.202Z,8.7
2017-09-24T02:15:54.614Z,8.6
2017-09-24T02:16:55.978Z,8.6
2017-09-24T02:17:57.386Z,8.6
2017-09-24T02:18:58.759Z,8.5
2017-09-24T02:20:00.168Z,8.5
2017-09-24T02:21:01.549Z,8.5
2017-09-24T02:22:02.946Z,8.6
2017-09-24T02:23:04.311Z,8.5
2017-09-24T02:24:05.726Z,8.5
2017-09-24T02:25:07.090Z,8.5
2017-09-24T02:26:08.506Z,8.4
2017-09-24T02:27:09.870Z,8.5
2017-09-24T02:28:11.680Z,8.3
2017-09-24T02:29:13.045Z,8.5
2017-09-24T02:30:14.474Z,8.3
2017-09-24T02:31:15.839Z,8.3
2017-09-24T02:32:17.254Z,8.3
2017-09-24T02:33:18.623Z,8.2
2017-09-24T02:34:20.033Z,8.3
2017-09-24T02:35:21.403Z,8.3
2017-09-24T02:36:22.813Z,8.2
2017-09-24T02:37:24.186Z,8.3
2017-09-24T02:38:25.597Z,8.3
2017-09-24T02:39:26.959Z,8.2
2017-09-24T02:40:28.374Z,8.3
2017-09-24T02:41:29.746Z,8.3
2017-09-24T02:42:31.152Z,8.2
2017-09-24T02:43:32.527Z,8.3
2017-09-24T02:44:33.931Z,8.3
2017-09-24T02:45:35.299Z,8.3
2017-09-24T02:46:36.711Z,8.3
2017-09-24T02:47:38.078Z,8.2
2017-09-24T02:48:39.490Z,8.3
2017-09-24T02:49:40.856Z,8.3
2017-09-24T02:50:42.270Z,8.3
2017-09-24T02:51:43.635Z,8.2
2017-09-24T02:52:45.051Z,8.2
2017-09-24T02:53:46.415Z,8.2
2017-09-24T02:54:47.829Z,8.2
2017-09-24T02:55:49.193Z,8.1
2017-09-24T02:56:50.609Z,8.1
2017-09-24T02:57:51.973Z,8.2
2017-09-24T02:58:53.388Z,8.1
2017-09-24T02:59:54.756Z,8.1
2017-09-24T03:00:56.168Z,8.1
2017-09-24T03:01:57.535Z,8.1
2017-09-24T03:02:58.949Z,8.1
2017-09-24T03:04:00.313Z,8.1
2017-09-24T03:05:01.728Z,8.1
2017-09-24T03:06:03.474Z,8.1
2017-09-24T03:07:04.916Z,8.1
2017-09-24T03:08:06.284Z,8.1
2017-09-24T03:09:07.705Z,8.1
2017-09-24T03:10:09.065Z,8.0
2017-09-24T03:11:10.475Z,8.0
2017-09-24T03:12:11.848Z,8.0
2017-09-24T03:13:13.254Z,8.0
2017-09-24T03:14:14.625Z,8.0
2017-09-24T03:15:16.035Z,8.1
2017-09-24T03:16:17.399Z,8.0
2017-09-24T03:17:18.814Z,8.0
2017-09-24T03:18:20.200Z,8.0
2017-09-24T03:19:21.594Z,7.9
2017-09-24T03:20:22.964Z,7.9
2017-09-24T03:21:24.377Z,8.0
2017-09-24T03:22:25.742Z,7.9
2017-09-24T03:23:27.153Z,7.9
2017-09-24T03:24:28.518Z,7.9
2017-09-24T03:25:29.933Z,7.9
2017-09-24T03:26:31.298Z,7.9
2017-09-24T03:27:32.675Z,7.9
2017-09-24T03:28:34.042Z,7.8
2017-09-24T03:29:35.491Z,8.0
2017-09-24T03:30:36.856Z,8.1
2017-09-24T03:31:38.271Z,8.0
2017-09-24T03:32:39.641Z,8.2
2017-09-24T03:33:41.051Z,8.1
2017-09-24T03:34:42.423Z,8.2
2017-09-24T03:35:43.833Z,8.2
2017-09-24T03:36:45.206Z,8.3
2017-09-24T03:37:46.611Z,8.2
2017-09-24T03:38:47.993Z,8.2
2017-09-24T03:39:49.390Z,8.2
2017-09-24T03:40:50.757Z,8.3
2017-09-24T03:41:52.172Z,8.2
2017-09-24T03:42:53.534Z,8.2
2017-09-24T03:43:54.948Z,8.2
2017-09-24T03:44:56.318Z,8.2
2017-09-24T03:45:57.729Z,8.2
2017-09-24T03:46:59.099Z,8.2
2017-09-24T03:48:00.508Z,8.2
2017-09-24T03:49:01.873Z,8.1
2017-09-24T03:50:03.293Z,8.1
2017-09-24T03:51:04.653Z,8.1
2017-09-24T03:52:06.069Z,8.1
2017-09-24T03:53:07.433Z,8.2
2017-09-24T03:54:08.848Z,8.1
2017-09-24T03:55:10.214Z,8.1
2017-09-24T03:56:11.629Z,8.1
2017-09-24T03:57:12.994Z,8.2
2017-09-24T03:58:14.418Z,8.2
2017-09-24T03:59:15.785Z,8.2
2017-09-24T04:00:17.196Z,8.2
2017-09-24T04:01:18.563Z,8.1
2017-09-24T04:02:19.966Z,8.0
2017-09-24T04:03:21.334Z,8.0
2017-09-24T04:04:22.740Z,8.1
2017-09-24T04:05:24.114Z,8.0
2017-09-24T04:06:25.537Z,8.1
2017-09-24T04:07:26.890Z,8.0
2017-09-24T04:08:28.304Z,8.0
2017-09-24T04:09:29.674Z,8.0
2017-09-24T04:10:31.084Z,7.9
2017-09-24T04:11:32.454Z,8.1
2017-09-24T04:12:33.863Z,8.0
2017-09-24T04:13:35.233Z,8.0
2017-09-24T04:14:36.650Z,8.0
2017-09-24T04:15:38.013Z,8.0
2017-09-24T04:16:39.425Z,8.0
2017-09-24T04:17:40.790Z,8.1
2017-09-24T04:18:42.199Z,8.0
2017-09-24T04:19:43.566Z,8.1
2017-09-24T04:20:44.981Z,8.0
2017-09-24T04:21:46.344Z,8.1
2017-09-24T04:22:47.760Z,8.0
2017-09-24T04:23:49.135Z,8.0
2017-09-24T04:24:50.537Z,8.1
2017-09-24T04:25:51.906Z,8.1
2017-09-24T04:26:53.320Z,8.0
2017-09-24T04:27:54.684Z,8.0
2017-09-24T04:28:56.104Z,8.0
2017-09-24T04:29:57.473Z,7.9
2017-09-24T04:30:58.883Z,7.8
2017-09-24T04:32:00.244Z,7.8
2017-09-24T04:33:01.658Z,7.9
2017-09-24T04:34:03.024Z,7.7
2017-09-24T04:35:04.429Z,7.8
2017-09-24T04:36:05.806Z,7.8
2017-09-24T04:37:07.596Z,7.8
2017-09-24T04:38:08.959Z,7.9
2017-09-24T04:39:10.406Z,7.8
2017-09-24T04:40:11.774Z,7.9
2017-09-24T04:41:13.187Z,7.9
2017-09-24T04:42:14.936Z,8.0
2017-09-24T04:43:16.375Z,8.0
2017-09-24T04:44:17.746Z,8.0
2017-09-24T04:45:19.156Z,7.8
2017-09-24T04:46:20.517Z,7.9
2017-09-24T04:47:21.935Z,7.9
2017-09-24T04:48:23.687Z,7.9
2017-09-24T04:49:25.124Z,7.9
2017-09-24T04:50:26.488Z,7.8
2017-09-24T04:51:27.904Z,7.8
2017-09-24T04:52:29.269Z,7.7
2017-09-24T04:53:30.684Z,7.7
2017-09-24T04:54:32.078Z,7.6
2017-09-24T04:55:33.463Z,7.7
2017-09-24T04:56:34.829Z,7.7
2017-09-24T04:57:36.242Z,7.7
2017-09-24T04:58:37.610Z,7.5
2017-09-24T04:59:39.021Z,7.5
2017-09-24T05:00:40.389Z,7.5
2017-09-24T05:01:41.805Z,7.6
2017-09-24T05:02:43.168Z,7.6
2017-09-24T05:03:44.583Z,7.5
2017-09-24T05:04:45.951Z,7.5
2017-09-24T05:05:47.363Z,7.5
2017-09-24T05:06:48.728Z,7.5
2017-09-24T05:07:50.146Z,7.4
2017-09-24T05:08:51.512Z,7.5
2017-09-24T05:09:52.920Z,7.4
2017-09-24T05:10:54.285Z,7.4
2017-09-24T05:11:55.699Z,7.4
2017-09-24T05:12:57.067Z,7.4
2017-09-24T05:13:58.481Z,7.4
2017-09-24T05:14:59.847Z,7.2
2017-09-24T05:16:01.259Z,7.3
2017-09-24T05:17:02.635Z,7.3
2017-09-24T05:18:04.068Z,7.3
2017-09-24T05:19:05.424Z,7.2
2017-09-24T05:20:06.818Z,7.2
2017-09-24T05:21:08.191Z,7.2
2017-09-24T05:22:09.597Z,7.2
2017-09-24T05:23:10.967Z,7.2
2017-09-24T05:24:12.378Z,7.1
2017-09-24T05:25:13.747Z,7.2
2017-09-24T05:26:15.157Z,7.2
2017-09-24T05:27:16.914Z,7.2
2017-09-24T05:28:18.348Z,7.1
2017-09-24T05:29:19.730Z,7.1
2017-09-24T05:30:21.124Z,7.2
2017-09-24T05:31:22.495Z,7.1
2017-09-24T05:32:23.910Z,7.0
2017-09-24T05:33:25.280Z,7.1
2017-09-24T05:34:26.686Z,7.1
2017-09-24T05:35:28.057Z,7.0
2017-09-24T05:36:29.460Z,7.1
2017-09-24T05:37:30.839Z,7.0
2017-09-24T05:38:32.251Z,7.1
2017-09-24T05:39:33.615Z,7.2
2017-09-24T05:40:35.404Z,7.1
2017-09-24T05:41:36.781Z,7.1
2017-09-24T05:42:38.215Z,7.1
2017-09-24T05:43:39.587Z,7.1
2017-09-24T05:44:40.995Z,7.0
2017-09-24T05:45:42.366Z,7.1
2017-09-24T05:46:43.786Z,7.1
2017-09-24T05:47:45.157Z,7.1
2017-09-24T05:48:46.553Z,7.1
2017-09-24T05:49:47.925Z,7.1
2017-09-24T05:50:49.332Z,7.2
2017-09-24T05:51:50.701Z,7.2
2017-09-24T05:52:52.111Z,7.3
2017-09-24T05:53:53.485Z,7.3
2017-09-24T05:54:54.889Z,7.4
2017-09-24T05:55:56.267Z,7.3
2017-09-24T05:56:57.669Z,7.4
2017-09-24T05:57:59.044Z,7.4
2017-09-24T05:59:00.452Z,7.3
2017-09-24T06:00:01.822Z,7.3
2017-09-24T06:01:03.237Z,7.4
2017-09-24T06:02:04.606Z,7.4
2017-09-24T06:03:06.014Z,7.4
2017-09-24T06:04:07.379Z,7.5
2017-09-24T06:05:08.788Z,7.5
2017-09-24T06:06:10.164Z,7.4
2017-09-24T06:07:11.570Z,7.5
2017-09-24T06:08:12.941Z,7.5
2017-09-24T06:09:14.350Z,7.5
2017-09-24T06:10:15.722Z,7.6
2017-09-24T06:11:17.521Z,7.6
2017-09-24T06:12:18.900Z,7.5
2017-09-24T06:13:20.324Z,7.7
2017-09-24T06:14:21.689Z,7.6
2017-09-24T06:15:23.107Z,7.5
2017-09-24T06:16:24.465Z,7.6
2017-09-24T06:17:25.876Z,7.7
2017-09-24T06:18:27.255Z,7.7
2017-09-24T06:19:28.656Z,7.6
2017-09-24T06:20:30.028Z,7.6
2017-09-24T06:21:31.446Z,7.8
2017-09-24T06:22:32.823Z,7.8
2017-09-24T06:23:34.224Z,7.8
2017-09-24T06:24:35.595Z,7.9
2017-09-24T06:25:37.005Z,7.8
2017-09-24T06:26:38.364Z,7.8
2017-09-24T06:27:39.777Z,7.9
2017-09-24T06:28:41.142Z,7.9
2017-09-24T06:29:42.552Z,7.9
2017-09-24T06:30:43.922Z,8.0
2017-09-24T06:31:45.336Z,8.1
2017-09-24T06:32:46.705Z,8.0
2017-09-24T06:33:48.114Z,8.0
2017-09-24T06:34:49.480Z,8.1
2017-09-24T06:35:51.285Z,8.0
2017-09-24T06:36:52.649Z,7.9
2017-09-24T06:37:54.079Z,8.0
2017-09-24T06:38:55.452Z,8.1
2017-09-24T06:39:56.862Z,8.1
2017-09-24T06:40:58.246Z,8.1
2017-09-24T06:41:59.643Z,8.1
2017-09-24T06:43:01.007Z,8.1
2017-09-24T06:44:02.426Z,8.1
2017-09-24T06:45:03.788Z,8.1
2017-09-24T06:46:05.202Z,8.2
2017-09-24T06:47:06.952Z,8.2
2017-09-24T06:48:08.392Z,8.2
2017-09-24T06:49:10.142Z,8.3
2017-09-24T06:50:12.345Z,8.3
2017-09-24T06:51:13.717Z,8.5
2017-09-24T06:52:15.189Z,8.4
2017-09-24T06:53:16.550Z,8.4
2017-09-24T06:54:17.953Z,8.5
2017-09-24T06:55:19.354Z,8.6
2017-09-24T06:56:20.740Z,8.5
2017-09-24T06:57:22.138Z,8.5
2017-09-24T06:58:23.620Z,8.5
2017-09-24T06:59:25.371Z,8.5
2017-09-24T07:00:26.814Z,8.5
2017-09-24T07:01:28.181Z,8.6
2017-09-24T07:02:29.587Z,8.5
2017-09-24T07:03:30.959Z,8.5
2017-09-24T07:04:32.379Z,8.5
2017-09-24T07:05:33.783Z,8.6
2017-09-24T07:06:35.147Z,8.6
2017-09-24T07:07:36.520Z,8.6
2017-09-24T07:08:37.901Z,8.7
2017-09-24T07:09:39.273Z,8.8
2017-09-24T07:10:41.321Z,8.7
2017-09-24T07:11:42.698Z,8.8
2017-09-24T07:12:44.099Z,8.8
2017-09-24T07:13:45.473Z,8.7
2017-09-24T07:14:46.878Z,8.8
2017-09-24T07:15:48.249Z,8.8
2017-09-24T07:16:49.788Z,8.8
2017-09-24T07:17:51.588Z,8.7
2017-09-24T07:18:53.333Z,8.8
2017-09-24T07:19:54.892Z,8.9
2017-09-24T07:20:56.538Z,8.9
2017-09-24T07:21:58.334Z,8.8
2017-09-24T07:22:59.737Z,8.9
2017-09-24T07:24:01.494Z,8.9
2017-09-24T07:25:02.996Z,9.0
2017-09-24T07:26:04.409Z,8.9
2017-09-24T07:27:05.809Z,9.0
2017-09-24T07:28:07.181Z,9.0
2017-09-24T07:29:08.919Z,9.0
2017-09-24T07:30:10.304Z,9.1
2017-09-24T07:31:11.777Z,9.1
2017-09-24T07:32:13.150Z,9.2
2017-09-24T07:33:15.044Z,9.3
2017-09-24T07:34:16.413Z,9.4
2017-09-24T07:35:17.868Z,9.3
2017-09-24T07:36:19.394Z,9.4
2017-09-24T07:37:20.833Z,9.5
2017-09-24T07:38:22.204Z,9.4
2017-09-24T07:39:24.098Z,9.5
2017-09-24T07:40:25.513Z,9.6
2017-09-24T07:41:26.904Z,9.6
2017-09-24T07:42:28.292Z,9.6
2017-09-24T07:43:29.688Z,9.7
2017-09-24T07:44:31.443Z,9.8
2017-09-24T07:45:32.870Z,9.9
2017-09-24T07:46:34.622Z,10.0
2017-09-24T07:47:36.058Z,10.0
2017-09-24T07:48:37.439Z,10.1
2017-09-24T07:49:38.841Z,10.2
2017-09-24T07:50:40.220Z,10.3
2017-09-24T07:51:42.015Z,10.4
2017-09-24T07:52:43.390Z,10.5
2017-09-24T07:53:44.815Z,10.8
2017-09-24T07:54:46.986Z,10.8
2017-09-24T07:55:48.959Z,10.9
2017-09-24T07:56:50.365Z,11.1
2017-09-24T07:57:51.830Z,11.1
2017-09-24T07:58:53.313Z,11.3
2017-09-24T07:59:55.636Z,11.5
2017-09-24T08:00:57.126Z,11.5
2017-09-24T08:01:58.668Z,11.5
2017-09-24T08:03:00.104Z,11.7
2017-09-24T08:04:01.648Z,11.7
2017-09-24T08:05:03.027Z,11.8
2017-09-24T08:06:04.462Z,11.9
2017-09-24T08:07:05.844Z,12.1
2017-09-24T08:08:08.290Z,12.1
2017-09-24T08:09:10.042Z,12.2
2017-09-24T08:10:11.452Z,12.2
2017-09-24T08:11:12.834Z,12.4
2017-09-24T08:12:14.726Z,12.4
2017-09-24T08:13:16.047Z,12.5
2017-09-24T08:14:17.904Z,12.5
2017-09-24T08:15:19.277Z,12.6
2017-09-24T08:16:20.722Z,12.7
2017-09-24T08:17:22.098Z,12.7
2017-09-24T08:18:23.493Z,12.8
2017-09-24T08:19:25.260Z,13.0
2017-09-24T08:20:26.687Z,13.2
2017-09-24T08:21:28.065Z,13.2
2017-09-24T08:22:29.683Z,13.3
2017-09-24T08:23:31.174Z,13.5
2017-09-24T08:24:33.013Z,13.4
2017-09-24T08:25:34.419Z,13.6
2017-09-24T08:26:35.927Z,13.7
2017-09-24T08:27:37.792Z,13.7
2017-09-24T08:28:39.709Z,14.0
2017-09-24T08:29:41.048Z,14.0
2017-09-24T08:30:42.555Z,14.1
2017-09-24T08:31:44.520Z,14.3
2017-09-24T08:32:46.758Z,14.4
2017-09-24T08:33:49.338Z,14.5
2017-09-24T08:34:51.593Z,14.5
2017-09-24T08:35:52.975Z,14.6
2017-09-24T08:36:54.513Z,14.7
2017-09-24T08:37:55.954Z,14.9
2017-09-24T08:38:58.125Z,14.9
2017-09-24T08:40:00.523Z,15.0
2017-09-24T08:41:01.982Z,15.2
2017-09-24T08:42:03.369Z,15.3
2017-09-24T08:43:04.854Z,15.4
2017-09-24T08:44:06.220Z,15.6
2017-09-24T08:45:08.097Z,15.6
2017-09-24T08:46:10.340Z,15.8
2017-09-24T08:47:11.829Z,16.0
2017-09-24T08:48:13.209Z,15.9
2017-09-24T08:49:15.096Z,16.1
2017-09-24T08:50:16.509Z,16.3
2017-09-24T08:51:18.380Z,16.3
2017-09-24T08:52:19.766Z,16.4
2017-09-24T08:53:21.573Z,16.4
2017-09-24T08:54:22.956Z,16.5
2017-09-24T08:55:24.417Z,16.6
2017-09-24T08:56:25.767Z,16.7
2017-09-24T08:57:27.262Z,16.8
2017-09-24T08:58:28.642Z,16.8
2017-09-24T08:59:30.041Z,16.9
2017-09-24T09:00:31.421Z,17.0
2017-09-24T09:01:33.196Z,17.0
2017-09-24T09:02:34.578Z,17.1
2017-09-24T09:03:36.007Z,17.2
2017-09-24T09:04:37.386Z,17.2
2017-09-24T09:05:38.787Z,17.4
2017-09-24T09:06:40.549Z,17.5
2017-09-24T09:07:41.977Z,17.6
2017-09-24T09:08:43.357Z,17.6
2017-09-24T09:09:44.755Z,17.7
2017-09-24T09:10:46.160Z,17.8
2017-09-24T09:11:47.642Z,17.8
2017-09-24T09:12:49.013Z,17.9
2017-09-24T09:13:50.422Z,18.0
2017-09-24T09:14:51.807Z,18.1
2017-09-24T09:15:53.298Z,18.2
2017-09-24T09:16:54.681Z,18.3
2017-09-24T09:17:56.079Z,18.5
2017-09-24T09:18:57.463Z,18.7
2017-09-24T09:19:58.857Z,18.8
2017-09-24T09:21:00.243Z,19.0
2017-09-24T09:22:01.636Z,19.3
2017-09-24T09:23:03.021Z,19.4
2017-09-24T09:24:04.419Z,19.6
2017-09-24T09:25:06.177Z,19.6
2017-09-24T09:26:07.607Z,19.8
2017-09-24T09:27:09.003Z,19.9
2017-09-24T09:28:10.489Z,20.0
2017-09-24T09:29:11.944Z,20.1
2017-09-24T09:30:13.428Z,20.3
2017-09-24T09:31:14.812Z,20.3
2017-09-24T09:32:16.466Z,20.3
2017-09-24T09:33:17.837Z,20.4
2017-09-24T09:34:19.238Z,20.6
2017-09-24T09:35:20.999Z,20.7
2017-09-24T09:36:22.434Z,20.8
2017-09-24T09:37:24.241Z,21.1
2017-09-24T09:38:25.719Z,21.2
2017-09-24T09:39:27.155Z,21.3
2017-09-24T09:40:28.598Z,21.5
2017-09-24T09:41:29.988Z,21.6
2017-09-24T09:42:31.859Z,21.6
2017-09-24T09:43:33.254Z,21.7
2017-09-24T09:44:34.670Z,21.8
2017-09-24T09:45:36.048Z,21.9
2017-09-24T09:46:37.831Z,22.0
2017-09-24T09:47:39.215Z,22.1
2017-09-24T09:48:40.639Z,22.1
2017-09-24T09:49:42.027Z,22.1
2017-09-24T09:50:43.521Z,22.0
2017-09-24T09:51:44.909Z,21.8
2017-09-24T09:52:46.411Z,21.7
2017-09-24T09:53:47.801Z,21.8
2017-09-24T09:54:49.286Z,22.0
2017-09-24T09:55:50.680Z,22.3
2017-09-24T09:56:52.205Z,22.4
2017-09-24T09:57:53.613Z,22.6
2017-09-24T09:58:55.072Z,22.7
2017-09-24T09:59:56.461Z,22.6
2017-09-24T10:00:57.924Z,22.7
2017-09-24T10:01:59.314Z,22.9
2017-09-24T10:03:00.711Z,22.8
2017-09-24T10:04:02.404Z,22.8
2017-09-24T10:05:03.905Z,22.8
2017-09-24T10:06:05.285Z,22.7
2017-09-24T10:07:06.798Z,22.8
2017-09-24T10:08:08.572Z,22.8
2017-09-24T10:09:09.973Z,22.7
2017-09-24T10:10:11.371Z,22.8
2017-09-24T10:11:12.859Z,22.8
2017-09-24T10:12:14.256Z,22.8
2017-09-24T10:13:15.739Z,22.8
2017-09-24T10:14:17.120Z,22.9
2017-09-24T10:15:19.004Z,23.0
2017-09-24T10:16:20.404Z,23.0
2017-09-24T10:17:22.182Z,23.1
2017-09-24T10:18:23.569Z,23.3
2017-09-24T10:19:25.026Z,23.4
2017-09-24T10:20:26.412Z,23.4
2017-09-24T10:21:27.878Z,23.5
2017-09-24T10:22:29.280Z,23.3
2017-09-24T10:23:30.756Z,23.2
2017-09-24T10:24:32.146Z,23.3
2017-09-24T10:25:33.670Z,23.3
2017-09-24T10:26:35.101Z,23.2
2017-09-24T10:27:36.903Z,23.2
2017-09-24T10:28:38.298Z,22.9
2017-09-24T10:29:39.720Z,22.8
2017-09-24T10:30:41.116Z,22.8
2017-09-24T10:31:42.597Z,22.8
2017-09-24T10:32:43.982Z,22.8
2017-09-24T10:33:45.478Z,23.0
2017-09-24T10:34:46.882Z,23.2
2017-09-24T10:35:48.371Z,23.4
2017-09-24T10:36:49.745Z,23.5
2017-09-24T10:37:51.277Z,23.5
2017-09-24T10:38:52.688Z,23.6
2017-09-24T10:39:54.127Z,23.5
2017-09-24T10:40:55.527Z,23.1
2017-09-24T10:41:58.615Z,23.2
2017-09-24T10:43:01.715Z,23.2
2017-09-24T10:44:04.714Z,23.3
2017-09-24T10:45:07.535Z,23.4
2017-09-24T10:46:10.361Z,23.6
2017-09-24T10:47:13.574Z,23.7
2017-09-24T10:48:16.772Z,23.3
2017-09-24T10:49:18.121Z,22.9
2017-09-24T10:50:19.597Z,22.8
2017-09-24T10:51:21.096Z,22.8
2017-09-24T10:52:23.006Z,22.6
2017-09-24T10:53:25.159Z,22.6
2017-09-24T10:54:26.582Z,22.7
2017-09-24T10:55:27.992Z,22.8
2017-09-24T10:56:29.471Z,23.0
2017-09-24T10:57:30.858Z,23.3
2017-09-24T10:58:32.350Z,23.4
2017-09-24T10:59:34.116Z,23.6
2017-09-24T11:00:35.536Z,23.7
2017-09-24T11:01:38.291Z,23.6
2017-09-24T11:02:39.750Z,23.7
2017-09-24T11:03:41.189Z,24.0
2017-09-24T11:04:42.699Z,24.1
2017-09-24T11:05:44.089Z,24.3
2017-09-24T11:06:45.514Z,24.3
2017-09-24T11:07:46.911Z,24.4
2017-09-24T11:08:48.395Z,24.5
2017-09-24T11:09:49.778Z,24.6
2017-09-24T11:10:51.276Z,24.6
2017-09-24T11:11:53.042Z,24.4
2017-09-24T11:12:54.846Z,24.4
2017-09-24T11:13:56.249Z,24.4
2017-09-24T11:14:57.655Z,24.6
2017-09-24T11:15:59.040Z,24.5
2017-09-24T11:17:00.538Z,24.5
2017-09-24T11:18:02.293Z,24.5
2017-09-24T11:19:03.727Z,24.5
2017-09-24T11:20:05.112Z,24.6
2017-09-24T11:21:06.896Z,24.6
2017-09-24T11:22:08.271Z,24.5
2017-09-24T11:23:09.696Z,24.6
2017-09-24T11:24:11.085Z,24.9
2017-09-24T11:25:12.866Z,24.9
2017-09-24T11:26:14.259Z,24.9
2017-09-24T11:27:15.663Z,25.0
2017-09-24T11:28:17.050Z,25.0
2017-09-24T11:29:18.547Z,25.0
2017-09-24T11:30:19.931Z,25.1
2017-09-24T11:31:21.435Z,25.4
2017-09-24T11:32:22.848Z,25.4
2017-09-24T11:33:24.336Z,25.6
2017-09-24T11:34:25.728Z,25.6
2017-09-24T11:35:27.194Z,25.5
2017-09-24T11:36:28.584Z,25.7
2017-09-24T11:37:30.078Z,25.8
2017-09-24T11:38:31.838Z,25.9
2017-09-24T11:39:33.263Z,26.0
2017-09-24T11:40:34.659Z,25.8
2017-09-24T11:41:36.145Z,25.5
2017-09-24T11:42:37.537Z,25.0
2017-09-24T11:43:39.405Z,24.9
2017-09-24T11:44:40.791Z,24.8
2017-09-24T11:45:42.216Z,24.8
2017-09-24T11:46:43.601Z,24.9
2017-09-24T11:47:45.099Z,24.9
2017-09-24T11:48:46.489Z,25.0
2017-09-24T11:49:47.980Z,25.2
2017-09-24T11:50:49.361Z,25.2
2017-09-24T11:51:50.760Z,25.3
2017-09-24T11:52:52.148Z,25.3
2017-09-24T11:53:53.654Z,25.5
2017-09-24T11:54:55.043Z,25.4
2017-09-24T11:55:56.525Z,25.7
2017-09-24T11:56:57.947Z,25.7
2017-09-24T11:57:59.404Z,25.9
2017-09-24T11:59:00.800Z,25.8
2017-09-24T12:00:02.290Z,26.0
2017-09-24T12:01:03.677Z,26.0
2017-09-24T12:02:05.170Z,26.1
2017-09-24T12:03:06.555Z,26.3
2017-09-24T12:04:08.051Z,26.2
2017-09-24T12:05:09.439Z,26.2
2017-09-24T12:06:10.939Z,26.4
2017-09-24T12:07:12.326Z,26.6
2017-09-24T12:08:14.241Z,26.6
2017-09-24T12:09:15.587Z,26.6
2017-09-24T12:10:17.006Z,26.6
2017-09-24T12:11:18.390Z,26.6
2017-09-24T12:12:19.887Z,26.6
2017-09-24T12:13:21.660Z,26.5
2017-09-24T12:14:23.076Z,26.6
2017-09-24T12:15:24.509Z,26.5
2017-09-24T12:16:25.959Z,26.6
2017-09-24T12:17:27.344Z,26.6
2017-09-24T12:18:28.861Z,26.6
2017-09-24T12:19:30.246Z,26.4
2017-09-24T12:20:31.722Z,26.2
2017-09-24T12:21:33.108Z,25.8
2017-09-24T12:22:34.607Z,25.7
2017-09-24T12:23:35.993Z,25.5
2017-09-24T12:24:37.489Z,25.3
2017-09-24T12:25:38.883Z,25.2
2017-09-24T12:26:40.373Z,25.4
2017-09-24T12:27:41.755Z,25.5
2017-09-24T12:28:43.260Z,25.5
2017-09-24T12:29:44.650Z,25.5
2017-09-24T12:30:46.132Z,25.5
2017-09-24T12:31:47.517Z,25.6
2017-09-24T12:32:49.020Z,25.5
2017-09-24T12:33:50.404Z,25.3
2017-09-24T12:34:52.033Z,25.0
2017-09-24T12:35:53.413Z,24.9
2017-09-24T12:36:54.881Z,24.9
2017-09-24T12:37:56.419Z,25.1
2017-09-24T12:38:57.973Z,25.4
2017-09-24T12:39:59.366Z,25.7
2017-09-24T12:41:00.849Z,25.8
2017-09-24T12:42:02.297Z,25.9
2017-09-24T12:43:03.724Z,25.9
2017-09-24T12:44:05.125Z,26.0
2017-09-24T12:45:06.824Z,26.2
2017-09-24T12:46:08.209Z,26.3
2017-09-24T12:47:09.699Z,26.5
2017-09-24T12:48:11.125Z,26.5
2017-09-24T12:49:12.615Z,26.2
2017-09-24T12:50:13.969Z,26.1
2017-09-24T12:51:15.459Z,25.7
2017-09-24T12:52:16.854Z,25.6
2017-09-24T12:53:18.368Z,25.6
2017-09-24T12:54:20.005Z,25.8
2017-09-24T12:55:21.432Z,25.7
2017-09-24T12:56:22.825Z,25.7
2017-09-24T12:57:24.318Z,25.5
2017-09-24T12:58:26.081Z,25.5
2017-09-24T12:59:27.599Z,25.5
2017-09-24T13:00:28.976Z,25.3
2017-09-24T13:01:30.431Z,25.4
2017-09-24T13:02:31.809Z,25.5
2017-09-24T13:03:33.281Z,25.6
2017-09-24T13:04:34.744Z,25.7
2017-09-24T13:05:36.252Z,25.6
2017-09-24T13:06:37.703Z,25.6
2017-09-24T13:07:39.181Z,25.6
2017-09-24T13:08:40.719Z,25.8
2017-09-24T13:09:42.124Z,25.9
2017-09-24T13:10:43.506Z,26.0
2017-09-24T13:11:45.384Z,26.2
2017-09-24T13:12:46.783Z,26.4
2017-09-24T13:13:48.197Z,26.7
2017-09-24T13:14:49.579Z,26.7
2017-09-24T13:15:51.223Z,26.6
2017-09-24T13:16:52.614Z,26.3
2017-09-24T13:17:54.055Z,25.7
2017-09-24T13:18:55.532Z,25.5
2017-09-24T13:19:56.929Z,25.6
2017-09-24T13:20:58.747Z,25.7
2017-09-24T13:22:00.601Z,25.8
2017-09-24T13:23:01.991Z,25.9
2017-09-24T13:24:03.418Z,26.0
2017-09-24T13:25:04.803Z,26.1
2017-09-24T13:26:06.299Z,26.1
2017-09-24T13:27:08.079Z,26.2
2017-09-24T13:28:09.565Z,26.4
2017-09-24T13:29:10.959Z,26.4
2017-09-24T13:30:12.372Z,26.5
2017-09-24T13:31:13.762Z,26.5
2017-09-24T13:32:15.254Z,26.2
2017-09-24T13:33:16.701Z,26.0
2017-09-24T13:34:18.138Z,25.9
2017-09-24T13:35:19.524Z,25.6
2017-09-24T13:36:21.017Z,25.4
2017-09-24T13:37:22.405Z,25.2
2017-09-24T13:38:23.955Z,25.5
2017-09-24T13:39:25.341Z,25.7
2017-09-24T13:40:26.780Z,25.8
2017-09-24T13:41:28.165Z,25.9
2017-09-24T13:42:29.948Z,25.9
2017-09-24T13:43:31.340Z,25.6
2017-09-24T13:44:32.755Z,25.5
2017-09-24T13:45:34.151Z,25.5
2017-09-24T13:46:35.639Z,25.6
2017-09-24T13:47:37.028Z,25.4
2017-09-24T13:48:38.538Z,24.7
2017-09-24T13:49:39.937Z,24.6
2017-09-24T13:50:41.783Z,24.4
2017-09-24T13:51:43.165Z,24.5
2017-09-24T13:52:44.728Z,24.5
2017-09-24T13:53:46.119Z,23.9